sensor_id;sensor_type;location;lat;lon;timestamp;pressure;altitude;pressure_sealevel;temperature;humidity
75166;BME280;63747;48.042;10.088;2022-12-18T00:01:03;96108.94;;;-5.16;71.38
75166;BME280;63747;48.042;10.088;2022-12-18T00:04:10;96108.28;;;-5.21;71.47
75166;BME280;63747;48.042;10.088;2022-12-18T00:07:15;96107.91;;;-5.34;71.45
75166;BME280;63747;48.042;10.088;2022-12-18T00:10:16;96110.28;;;-5.30;71.87
75166;BME280;63747;48.042;10.088;2022-12-18T00:13:16;96108.53;;;-5.28;71.67
75166;BME280;63747;48.042;10.088;2022-12-18T00:16:19;96112.81;;;-5.28;71.51
75166;BME280;63747;48.042;10.088;2022-12-18T00:19:21;96112.88;;;-5.30;71.76
75166;BME280;63747;48.042;10.088;2022-12-18T00:22:21;96108.75;;;-5.34;71.69
75166;BME280;63747;48.042;10.088;2022-12-18T00:25:22;96119.16;;;-5.37;71.84
75166;BME280;63747;48.042;10.088;2022-12-18T00:28:23;96125.91;;;-5.33;71.76
75166;BME280;63747;48.042;10.088;2022-12-18T00:31:25;96130.06;;;-5.29;71.53
75166;BME280;63747;48.042;10.088;2022-12-18T00:34:26;96125.84;;;-5.31;71.69
75166;BME280;63747;48.042;10.088;2022-12-18T00:37:27;96125.81;;;-5.30;71.52
75166;BME280;63747;48.042;10.088;2022-12-18T00:40:30;96138.63;;;-5.27;71.58
75166;BME280;63747;48.042;10.088;2022-12-18T00:43:31;96128.22;;;-5.25;71.59
75166;BME280;63747;48.042;10.088;2022-12-18T00:46:34;96128.91;;;-5.20;71.54
75166;BME280;63747;48.042;10.088;2022-12-18T00:49:35;96134.84;;;-5.18;71.61
75166;BME280;63747;48.042;10.088;2022-12-18T00:52:36;96140.94;;;-5.19;71.61
75166;BME280;63747;48.042;10.088;2022-12-18T00:55:38;96141.78;;;-5.18;71.62
75166;BME280;63747;48.042;10.088;2022-12-18T00:58:39;96148.50;;;-5.14;71.69
75166;BME280;63747;48.042;10.088;2022-12-18T01:01:40;96146.16;;;-5.20;71.77
75166;BME280;63747;48.042;10.088;2022-12-18T01:04:42;96138.44;;;-5.22;71.71
75166;BME280;63747;48.042;10.088;2022-12-18T01:07:42;96136.06;;;-5.28;71.72
75166;BME280;63747;48.042;10.088;2022-12-18T01:10:43;96135.97;;;-5.25;71.75
75166;BME280;63747;48.042;10.088;2022-12-18T01:13:45;96135.91;;;-5.23;71.55
75166;BME280;63747;48.042;10.088;2022-12-18T01:16:45;96147.94;;;-5.22;71.46
75166;BME280;63747;48.042;10.088;2022-12-18T01:19:46;96159.19;;;-5.23;71.51
75166;BME280;63747;48.042;10.088;2022-12-18T01:22:47;96164.56;;;-5.30;71.64
75166;BME280;63747;48.042;10.088;2022-12-18T01:25:48;96164.56;;;-5.30;71.59
75166;BME280;63747;48.042;10.088;2022-12-18T01:28:49;96171.31;;;-5.26;71.53
75166;BME280;63747;48.042;10.088;2022-12-18T01:31:50;96173.06;;;-5.26;71.63
75166;BME280;63747;48.042;10.088;2022-12-18T01:34:51;96170.56;;;-5.29;71.56
75166;BME280;63747;48.042;10.088;2022-12-18T01:37:55;96173.97;;;-5.27;71.49
75166;BME280;63747;48.042;10.088;2022-12-18T01:41:01;96184.38;;;-5.30;71.58
75166;BME280;63747;48.042;10.088;2022-12-18T01:44:45;96187.66;;;-5.25;71.70
75166;BME280;63747;48.042;10.088;2022-12-18T01:47:46;96188.34;;;-5.20;71.65
75166;BME280;63747;48.042;10.088;2022-12-18T01:50:49;96189.34;;;-5.24;71.30
75166;BME280;63747;48.042;10.088;2022-12-18T01:53:50;96190.31;;;-5.27;71.49
75166;BME280;63747;48.042;10.088;2022-12-18T01:56:50;96183.53;;;-5.31;71.46
75166;BME280;63747;48.042;10.088;2022-12-18T01:59:53;96180.28;;;-5.36;71.49
75166;BME280;63747;48.042;10.088;2022-12-18T02:02:54;96179.75;;;-5.45;71.65
75166;BME280;63747;48.042;10.088;2022-12-18T02:06:13;96181.59;;;-5.49;71.78
75166;BME280;63747;48.042;10.088;2022-12-18T02:09:24;96179.06;;;-5.50;71.78
75166;BME280;63747;48.042;10.088;2022-12-18T02:12:39;96184.03;;;-5.44;71.70
75166;BME280;63747;48.042;10.088;2022-12-18T02:15:51;96181.59;;;-5.49;71.78
75166;BME280;63747;48.042;10.088;2022-12-18T02:18:59;96183.88;;;-5.40;71.67
75166;BME280;63747;48.042;10.088;2022-12-18T02:22:12;96177.88;;;-5.40;71.55
75166;BME280;63747;48.042;10.088;2022-12-18T02:25:23;96177.88;;;-5.40;71.58
75166;BME280;63747;48.042;10.088;2022-12-18T02:28:31;96172.78;;;-5.43;71.39
75166;BME280;63747;48.042;10.088;2022-12-18T02:31:42;96178.84;;;-5.44;71.55
75166;BME280;63747;48.042;10.088;2022-12-18T02:34:44;96182.59;;;-5.53;71.53
75166;BME280;63747;48.042;10.088;2022-12-18T02:37:46;96180.09;;;-5.55;71.73
75166;BME280;63747;48.042;10.088;2022-12-18T02:40:49;96179.97;;;-5.52;71.67
75166;BME280;63747;48.042;10.088;2022-12-18T02:43:56;96174.69;;;-5.48;71.76
75166;BME280;63747;48.042;10.088;2022-12-18T02:46:57;96160.91;;;-5.49;71.58
75166;BME280;63747;48.042;10.088;2022-12-18T02:56:35;96171.91;;;-5.67;71.71
75166;BME280;63747;48.042;10.088;2022-12-18T02:59:54;96177.97;;;-5.68;71.98
75166;BME280;63747;48.042;10.088;2022-12-18T03:03:01;96176.31;;;-5.71;71.96
75166;BME280;63747;48.042;10.088;2022-12-18T03:06:07;96166.75;;;-5.69;71.85
75166;BME280;63747;48.042;10.088;2022-12-18T03:09:17;96158.94;;;-5.66;71.77
75166;BME280;63747;48.042;10.088;2022-12-18T03:15:43;96173.22;;;-5.56;71.62
75166;BME280;63747;48.042;10.088;2022-12-18T03:18:46;96194.19;;;-5.65;71.54
75166;BME280;63747;48.042;10.088;2022-12-18T03:21:56;96186.56;;;-5.68;71.73
75166;BME280;63747;48.042;10.088;2022-12-18T03:25:00;96183.75;;;-5.62;71.95
75166;BME280;63747;48.042;10.088;2022-12-18T03:28:03;96174.03;;;-5.55;71.79
75166;BME280;63747;48.042;10.088;2022-12-18T03:31:08;96180.22;;;-5.59;71.87
75166;BME280;63747;48.042;10.088;2022-12-18T03:34:16;96193.19;;;-5.61;71.96
75166;BME280;63747;48.042;10.088;2022-12-18T03:37:20;96197.75;;;-5.69;71.84
75166;BME280;63747;48.042;10.088;2022-12-18T03:40:27;96193.75;;;-5.77;71.85
75166;BME280;63747;48.042;10.088;2022-12-18T03:43:40;96199.75;;;-5.77;72.10
75166;BME280;63747;48.042;10.088;2022-12-18T03:47:05;96189.38;;;-5.75;72.20
75166;BME280;63747;48.042;10.088;2022-12-18T03:50:14;96193.53;;;-5.71;72.04
75166;BME280;63747;48.042;10.088;2022-12-18T03:53:51;96200.00;;;-5.58;72.02
75166;BME280;63747;48.042;10.088;2022-12-18T03:56:59;96199.00;;;-5.54;71.66
75166;BME280;63747;48.042;10.088;2022-12-18T04:00:12;96197.28;;;-5.55;71.62
75166;BME280;63747;48.042;10.088;2022-12-18T04:03:13;96199.22;;;-5.60;71.59
75166;BME280;63747;48.042;10.088;2022-12-18T04:06:16;96196.97;;;-5.71;71.62
75166;BME280;63747;48.042;10.088;2022-12-18T04:09:19;96184.81;;;-5.67;71.64
75166;BME280;63747;48.042;10.088;2022-12-18T04:12:21;96201.09;;;-5.65;71.78
75166;BME280;63747;48.042;10.088;2022-12-18T04:15:26;96195.03;;;-5.64;71.66
75166;BME280;63747;48.042;10.088;2022-12-18T04:18:27;96208.06;;;-5.67;71.47
75166;BME280;63747;48.042;10.088;2022-12-18T04:21:28;96213.38;;;-5.72;71.64
75166;BME280;63747;48.042;10.088;2022-12-18T04:24:29;96215.00;;;-5.69;71.91
75166;BME280;63747;48.042;10.088;2022-12-18T04:27:30;96210.59;;;-5.66;71.56
75166;BME280;63747;48.042;10.088;2022-12-18T04:30:31;96215.75;;;-5.66;71.56
75166;BME280;63747;48.042;10.088;2022-12-18T04:33:32;96215.94;;;-5.72;71.48
75166;BME280;63747;48.042;10.088;2022-12-18T04:36:32;96219.16;;;-5.92;71.74
75166;BME280;63747;48.042;10.088;2022-12-18T04:39:33;96219.31;;;-5.96;71.81
75166;BME280;63747;48.042;10.088;2022-12-18T04:42:34;96213.69;;;-5.81;72.05
75166;BME280;63747;48.042;10.088;2022-12-18T04:45:35;96224.00;;;-5.81;71.81
75166;BME280;63747;48.042;10.088;2022-12-18T04:48:36;96220.00;;;-5.91;71.74
75166;BME280;63747;48.042;10.088;2022-12-18T04:51:37;96225.22;;;-5.93;71.89
75166;BME280;63747;48.042;10.088;2022-12-18T04:54:38;96229.56;;;-5.93;71.72
75166;BME280;63747;48.042;10.088;2022-12-18T04:57:38;96221.63;;;-5.89;71.83
75166;BME280;63747;48.042;10.088;2022-12-18T05:00:39;96229.16;;;-5.81;71.70
75166;BME280;63747;48.042;10.088;2022-12-18T05:03:40;96236.84;;;-5.80;71.64
75166;BME280;63747;48.042;10.088;2022-12-18T05:06:41;96244.94;;;-5.90;71.51
75166;BME280;63747;48.042;10.088;2022-12-18T05:09:42;96255.13;;;-6.14;71.73
75166;BME280;63747;48.042;10.088;2022-12-18T05:12:43;96257.78;;;-6.15;71.85
75166;BME280;63747;48.042;10.088;2022-12-18T05:15:59;96262.72;;;-6.09;71.90
75166;BME280;63747;48.042;10.088;2022-12-18T05:19:00;96262.63;;;-6.06;71.98
75166;BME280;63747;48.042;10.088;2022-12-18T05:22:01;96260.84;;;-6.04;71.86
75166;BME280;63747;48.042;10.088;2022-12-18T05:25:02;96261.69;;;-6.03;71.97
75166;BME280;63747;48.042;10.088;2022-12-18T05:28:03;96256.94;;;-6.16;71.56
75166;BME280;63747;48.042;10.088;2022-12-18T05:31:04;96264.00;;;-6.22;71.92
75166;BME280;63747;48.042;10.088;2022-12-18T05:34:05;96263.53;;;-6.07;71.93
75166;BME280;63747;48.042;10.088;2022-12-18T05:37:06;96260.53;;;-5.93;71.81
75166;BME280;63747;48.042;10.088;2022-12-18T05:40:07;96263.84;;;-5.90;71.80
75166;BME280;63747;48.042;10.088;2022-12-18T05:43:09;96261.97;;;-5.85;71.51
75166;BME280;63747;48.042;10.088;2022-12-18T05:46:14;96262.88;;;-5.86;71.42
75166;BME280;63747;48.042;10.088;2022-12-18T05:49:15;96265.78;;;-5.96;71.53
75166;BME280;63747;48.042;10.088;2022-12-18T05:52:17;96265.13;;;-6.03;71.41
75166;BME280;63747;48.042;10.088;2022-12-18T05:55:17;96266.72;;;-5.99;71.68
75166;BME280;63747;48.042;10.088;2022-12-18T05:58:18;96272.66;;;-5.97;71.54
75166;BME280;63747;48.042;10.088;2022-12-18T06:01:26;96273.09;;;-6.11;71.39
75166;BME280;63747;48.042;10.088;2022-12-18T06:04:31;96276.63;;;-6.13;71.57
75166;BME280;63747;48.042;10.088;2022-12-18T06:07:31;96281.72;;;-6.12;71.58
75166;BME280;63747;48.042;10.088;2022-12-18T06:10:32;96274.13;;;-6.16;71.75
75166;BME280;63747;48.042;10.088;2022-12-18T06:13:33;96279.28;;;-6.16;71.74
75166;BME280;63747;48.042;10.088;2022-12-18T06:16:34;96293.00;;;-6.14;71.59
75166;BME280;63747;48.042;10.088;2022-12-18T06:19:35;96295.22;;;-6.31;71.57
75166;BME280;63747;48.042;10.088;2022-12-18T06:22:36;96296.00;;;-6.28;71.92
75166;BME280;63747;48.042;10.088;2022-12-18T06:25:38;96294.06;;;-6.21;71.92
75166;BME280;63747;48.042;10.088;2022-12-18T06:28:39;96295.59;;;-6.14;71.72
75166;BME280;63747;48.042;10.088;2022-12-18T06:31:40;96286.34;;;-6.21;71.90
75166;BME280;63747;48.042;10.088;2022-12-18T06:34:41;96287.22;;;-6.22;71.61
75166;BME280;63747;48.042;10.088;2022-12-18T06:37:42;96291.75;;;-6.30;71.70
75166;BME280;63747;48.042;10.088;2022-12-18T06:40:42;96290.84;;;-6.28;71.69
75166;BME280;63747;48.042;10.088;2022-12-18T06:43:43;96289.09;;;-6.27;71.76
75166;BME280;63747;48.042;10.088;2022-12-18T06:46:44;96274.41;;;-6.25;71.58
75166;BME280;63747;48.042;10.088;2022-12-18T06:49:45;96286.50;;;-6.27;71.51
75166;BME280;63747;48.042;10.088;2022-12-18T06:52:45;96294.31;;;-6.29;71.75
75166;BME280;63747;48.042;10.088;2022-12-18T06:55:46;96289.09;;;-6.27;71.51
75166;BME280;63747;48.042;10.088;2022-12-18T06:58:47;96298.47;;;-6.25;71.62
75166;BME280;63747;48.042;10.088;2022-12-18T07:01:48;96306.94;;;-6.20;71.61
75166;BME280;63747;48.042;10.088;2022-12-18T07:04:49;96307.94;;;-6.25;71.51
75166;BME280;63747;48.042;10.088;2022-12-18T07:07:49;96309.56;;;-6.23;71.57
75166;BME280;63747;48.042;10.088;2022-12-18T07:10:50;96319.69;;;-6.15;71.69
75166;BME280;63747;48.042;10.088;2022-12-18T07:13:52;96308.38;;;-6.11;71.21
75166;BME280;63747;48.042;10.088;2022-12-18T07:16:53;96316.84;;;-6.06;71.37
75166;BME280;63747;48.042;10.088;2022-12-18T07:19:54;96317.41;;;-5.96;71.24
75166;BME280;63747;48.042;10.088;2022-12-18T07:22:54;96333.94;;;-6.02;70.89
75166;BME280;63747;48.042;10.088;2022-12-18T07:25:55;96313.47;;;-6.08;71.10
75166;BME280;63747;48.042;10.088;2022-12-18T07:28:56;96330.53;;;-6.04;70.92
75166;BME280;63747;48.042;10.088;2022-12-18T07:31:57;96330.53;;;-6.04;71.08
75166;BME280;63747;48.042;10.088;2022-12-18T07:34:58;96338.03;;;-5.96;71.09
75166;BME280;63747;48.042;10.088;2022-12-18T07:38:00;96352.84;;;-6.01;70.75
75166;BME280;63747;48.042;10.088;2022-12-18T07:41:08;96357.00;;;-5.97;70.82
75166;BME280;63747;48.042;10.088;2022-12-18T07:44:10;96356.75;;;-5.88;70.64
75166;BME280;63747;48.042;10.088;2022-12-18T07:47:11;96351.50;;;-5.85;70.73
75166;BME280;63747;48.042;10.088;2022-12-18T07:50:11;96361.72;;;-5.82;70.63
75166;BME280;63747;48.042;10.088;2022-12-18T07:53:13;96365.00;;;-5.77;70.55
75166;BME280;63747;48.042;10.088;2022-12-18T07:56:14;96368.31;;;-5.72;70.34
75166;BME280;63747;48.042;10.088;2022-12-18T07:59:15;96374.31;;;-5.71;70.30
75166;BME280;63747;48.042;10.088;2022-12-18T08:02:15;96369.75;;;-5.63;70.05
75166;BME280;63747;48.042;10.088;2022-12-18T08:05:16;96360.44;;;-5.69;70.00
75166;BME280;63747;48.042;10.088;2022-12-18T08:08:17;96372.22;;;-5.59;69.96
75166;BME280;63747;48.042;10.088;2022-12-18T08:11:18;96362.59;;;-5.54;69.90
75166;BME280;63747;48.042;10.088;2022-12-18T08:14:18;96375.06;;;-5.40;69.66
75166;BME280;63747;48.042;10.088;2022-12-18T08:17:19;96379.16;;;-5.33;69.63
75166;BME280;63747;48.042;10.088;2022-12-18T08:20:20;96379.22;;;-5.34;69.35
75166;BME280;63747;48.042;10.088;2022-12-18T08:23:22;96381.69;;;-5.31;69.38
75166;BME280;63747;48.042;10.088;2022-12-18T08:26:24;96379.56;;;-5.18;69.35
75166;BME280;63747;48.042;10.088;2022-12-18T08:29:25;96379.16;;;-5.06;68.97
75166;BME280;63747;48.042;10.088;2022-12-18T08:32:27;96372.19;;;-5.04;68.97
75166;BME280;63747;48.042;10.088;2022-12-18T08:35:28;96368.91;;;-5.09;68.84
75166;BME280;63747;48.042;10.088;2022-12-18T08:38:29;96363.66;;;-5.06;69.05
75166;BME280;63747;48.042;10.088;2022-12-18T08:41:30;96368.63;;;-5.00;68.74
75166;BME280;63747;48.042;10.088;2022-12-18T08:44:30;96374.38;;;-4.92;68.80
75166;BME280;63747;48.042;10.088;2022-12-18T08:47:37;96367.09;;;-4.81;68.70
75166;BME280;63747;48.042;10.088;2022-12-18T08:50:38;96363.47;;;-4.75;68.49
75166;BME280;63747;48.042;10.088;2022-12-18T08:53:39;96372.03;;;-4.73;68.36
75166;BME280;63747;48.042;10.088;2022-12-18T08:56:39;96377.22;;;-4.73;68.32
75166;BME280;63747;48.042;10.088;2022-12-18T08:59:40;96372.06;;;-4.75;68.30
75166;BME280;63747;48.042;10.088;2022-12-18T09:02:41;96369.38;;;-4.72;68.25
75166;BME280;63747;48.042;10.088;2022-12-18T09:05:42;96362.78;;;-4.55;68.01
75166;BME280;63747;48.042;10.088;2022-12-18T09:08:44;96363.03;;;-4.38;67.80
75166;BME280;63747;48.042;10.088;2022-12-18T09:11:45;96363.44;;;-4.25;67.59
75166;BME280;63747;48.042;10.088;2022-12-18T09:14:46;96367.38;;;-4.15;67.19
75166;BME280;63747;48.042;10.088;2022-12-18T09:17:47;96364.78;;;-4.15;67.29
75166;BME280;63747;48.042;10.088;2022-12-18T09:20:49;96371.94;;;-4.22;67.14
75166;BME280;63747;48.042;10.088;2022-12-18T09:23:54;96374.16;;;-4.11;66.98
75166;BME280;63747;48.042;10.088;2022-12-18T09:26:55;96377.97;;;-3.98;66.72
75166;BME280;63747;48.042;10.088;2022-12-18T09:29:56;96373.28;;;-3.88;66.83
75166;BME280;63747;48.042;10.088;2022-12-18T09:32:56;96373.81;;;-3.78;66.41
75166;BME280;63747;48.042;10.088;2022-12-18T09:35:57;96374.66;;;-3.78;66.40
75166;BME280;63747;48.042;10.088;2022-12-18T09:38:58;96365.13;;;-3.77;66.00
75166;BME280;63747;48.042;10.088;2022-12-18T09:41:59;96359.94;;;-3.77;66.40
75166;BME280;63747;48.042;10.088;2022-12-18T09:44:59;96362.13;;;-3.67;66.27
75166;BME280;63747;48.042;10.088;2022-12-18T09:48:01;96373.84;;;-3.56;66.17
75166;BME280;63747;48.042;10.088;2022-12-18T09:51:08;96373.38;;;-3.44;65.89
75166;BME280;63747;48.042;10.088;2022-12-18T09:54:18;96354.41;;;-3.46;65.45
75166;BME280;63747;48.042;10.088;2022-12-18T09:57:23;96361.03;;;-3.39;65.57
75166;BME280;63747;48.042;10.088;2022-12-18T10:00:25;96364.22;;;-3.33;65.22
75166;BME280;63747;48.042;10.088;2022-12-18T10:03:26;96363.16;;;-3.27;65.04
75166;BME280;63747;48.042;10.088;2022-12-18T10:09:57;96376.16;;;-3.07;64.44
75166;BME280;63747;48.042;10.088;2022-12-18T10:20:30;96360.53;;;-3.05;64.36
75166;BME280;63747;48.042;10.088;2022-12-18T10:27:11;96364.78;;;-3.02;64.53
75166;BME280;63747;48.042;10.088;2022-12-18T10:30:21;96357.38;;;-2.91;64.33
75166;BME280;63747;48.042;10.088;2022-12-18T10:33:27;96350.41;;;-2.89;64.17
75166;BME280;63747;48.042;10.088;2022-12-18T10:36:28;96348.97;;;-2.96;64.44
75166;BME280;63747;48.042;10.088;2022-12-18T10:39:29;96343.97;;;-2.81;64.22
75166;BME280;63747;48.042;10.088;2022-12-18T10:42:30;96335.75;;;-2.70;64.00
75166;BME280;63747;48.042;10.088;2022-12-18T10:45:31;96333.25;;;-2.73;63.48
75166;BME280;63747;48.042;10.088;2022-12-18T10:48:34;96344.00;;;-3.23;63.92
75166;BME280;63747;48.042;10.088;2022-12-18T10:51:37;96348.97;;;-3.18;64.73
75166;BME280;63747;48.042;10.088;2022-12-18T10:54:38;96362.19;;;-2.82;64.60
75166;BME280;63747;48.042;10.088;2022-12-18T10:57:39;96355.13;;;-2.58;64.08
75166;BME280;63747;48.042;10.088;2022-12-18T11:00:41;96354.09;;;-2.54;63.43
75166;BME280;63747;48.042;10.088;2022-12-18T11:03:58;96360.31;;;-2.38;63.11
75166;BME280;63747;48.042;10.088;2022-12-18T11:07:04;96365.47;;;-2.36;63.20
75166;BME280;63747;48.042;10.088;2022-12-18T11:10:15;96361.78;;;-2.12;62.70
75166;BME280;63747;48.042;10.088;2022-12-18T11:13:21;96365.91;;;-2.67;62.07
75166;BME280;63747;48.042;10.088;2022-12-18T11:16:26;96369.06;;;-2.81;63.28
75166;BME280;63747;48.042;10.088;2022-12-18T11:19:36;96365.81;;;-2.86;62.54
75166;BME280;63747;48.042;10.088;2022-12-18T11:22:37;96372.97;;;-3.13;63.20
75166;BME280;63747;48.042;10.088;2022-12-18T11:25:38;96368.81;;;-3.39;63.68
75166;BME280;63747;48.042;10.088;2022-12-18T11:28:51;96363.38;;;-3.11;63.72
75166;BME280;63747;48.042;10.088;2022-12-18T11:32:12;96353.44;;;-2.80;63.04
75166;BME280;63747;48.042;10.088;2022-12-18T11:35:28;96364.56;;;-2.98;63.13
75166;BME280;63747;48.042;10.088;2022-12-18T11:38:35;96363.41;;;-2.91;63.20
75166;BME280;63747;48.042;10.088;2022-12-18T11:41:53;96361.72;;;-2.92;63.08
75166;BME280;63747;48.042;10.088;2022-12-18T11:48:28;96343.72;;;-2.74;62.76
75166;BME280;63747;48.042;10.088;2022-12-18T11:51:40;96346.75;;;-2.85;62.50
75166;BME280;63747;48.042;10.088;2022-12-18T11:54:43;96345.47;;;-2.75;62.90
75166;BME280;63747;48.042;10.088;2022-12-18T12:01:28;96342.72;;;-2.52;62.87
75166;BME280;63747;48.042;10.088;2022-12-18T12:19:01;96310.56;;;-2.68;62.09
75166;BME280;63747;48.042;10.088;2022-12-18T12:32:22;96267.03;;;-2.61;62.68
75166;BME280;63747;48.042;10.088;2022-12-18T12:38:55;96273.63;;;-2.54;63.21
75166;BME280;63747;48.042;10.088;2022-12-18T12:41:57;96280.66;;;-2.37;62.85
75166;BME280;63747;48.042;10.088;2022-12-18T12:45:54;96282.50;;;-2.39;62.54
75166;BME280;63747;48.042;10.088;2022-12-18T12:48:58;96281.06;;;-2.46;63.09
75166;BME280;63747;48.042;10.088;2022-12-18T12:52:05;96276.75;;;-2.27;62.70
75166;BME280;63747;48.042;10.088;2022-12-18T12:55:14;96264.19;;;-2.17;62.53
75166;BME280;63747;48.042;10.088;2022-12-18T12:58:26;96274.22;;;-2.29;62.19
75166;BME280;63747;48.042;10.088;2022-12-18T13:08:10;96277.22;;;-2.57;63.20
75166;BME280;63747;48.042;10.088;2022-12-18T13:11:29;96279.41;;;-2.68;63.23
75166;BME280;63747;48.042;10.088;2022-12-18T13:14:49;96289.03;;;-2.70;63.56
75166;BME280;63747;48.042;10.088;2022-12-18T13:18:20;96292.81;;;-2.77;63.39
75166;BME280;63747;48.042;10.088;2022-12-18T13:21:30;96298.00;;;-2.77;63.37
75166;BME280;63747;48.042;10.088;2022-12-18T13:24:31;96299.78;;;-2.79;63.55
75166;BME280;63747;48.042;10.088;2022-12-18T13:33:50;96283.44;;;-2.81;63.74
75166;BME280;63747;48.042;10.088;2022-12-18T13:36:52;96280.09;;;-3.03;63.43
75166;BME280;63747;48.042;10.088;2022-12-18T13:39:53;96289.66;;;-3.26;63.87
75166;BME280;63747;48.042;10.088;2022-12-18T13:42:54;96290.66;;;-3.50;64.58
75166;BME280;63747;48.042;10.088;2022-12-18T13:49:38;96289.91;;;-3.32;64.38
75166;BME280;63747;48.042;10.088;2022-12-18T13:52:39;96285.88;;;-3.39;64.38
75166;BME280;63747;48.042;10.088;2022-12-18T13:55:44;96287.88;;;-3.46;64.47
75166;BME280;63747;48.042;10.088;2022-12-18T13:58:45;96299.28;;;-3.72;64.33
75166;BME280;63747;48.042;10.088;2022-12-18T14:04:53;96300.06;;;-3.48;64.74
75166;BME280;63747;48.042;10.088;2022-12-18T14:07:54;96295.88;;;-3.30;64.52
75166;BME280;63747;48.042;10.088;2022-12-18T14:10:56;96294.25;;;-3.33;64.33
75166;BME280;63747;48.042;10.088;2022-12-18T14:13:57;96292.69;;;-3.37;64.53
75166;BME280;63747;48.042;10.088;2022-12-18T14:16:58;96305.88;;;-3.21;64.53
75166;BME280;63747;48.042;10.088;2022-12-18T14:19:59;96298.22;;;-3.24;63.90
75166;BME280;63747;48.042;10.088;2022-12-18T14:23:01;96302.28;;;-3.61;64.75
75166;BME280;63747;48.042;10.088;2022-12-18T14:26:18;96305.31;;;-3.49;64.58
75166;BME280;63747;48.042;10.088;2022-12-18T14:29:30;96292.41;;;-3.51;64.38
75166;BME280;63747;48.042;10.088;2022-12-18T14:32:31;96291.22;;;-3.64;64.97
75166;BME280;63747;48.042;10.088;2022-12-18T14:35:37;96301.13;;;-3.53;64.98
75166;BME280;63747;48.042;10.088;2022-12-18T14:38:39;96293.38;;;-3.75;64.87
75166;BME280;63747;48.042;10.088;2022-12-18T14:41:40;96296.19;;;-3.81;65.27
75166;BME280;63747;48.042;10.088;2022-12-18T14:44:41;96287.66;;;-3.83;65.09
75166;BME280;63747;48.042;10.088;2022-12-18T14:47:43;96290.03;;;-3.79;65.15
75166;BME280;63747;48.042;10.088;2022-12-18T14:50:45;96295.72;;;-3.69;65.16
75166;BME280;63747;48.042;10.088;2022-12-18T14:53:56;96292.97;;;-3.65;64.95
75166;BME280;63747;48.042;10.088;2022-12-18T14:57:24;96293.72;;;-3.63;64.94
75166;BME280;63747;48.042;10.088;2022-12-18T15:00:25;96301.50;;;-3.63;65.00
75166;BME280;63747;48.042;10.088;2022-12-18T15:03:26;96304.81;;;-3.81;65.09
75166;BME280;63747;48.042;10.088;2022-12-18T15:06:30;96295.59;;;-3.88;65.48
75166;BME280;63747;48.042;10.088;2022-12-18T15:09:32;96300.91;;;-3.91;65.56
75166;BME280;63747;48.042;10.088;2022-12-18T15:12:35;96291.59;;;-3.97;65.46
75166;BME280;63747;48.042;10.088;2022-12-18T15:18:41;96306.38;;;-4.22;66.02
75166;BME280;63747;48.042;10.088;2022-12-18T15:21:45;96311.69;;;-4.25;65.85
75166;BME280;63747;48.042;10.088;2022-12-18T15:24:46;96313.59;;;-4.30;65.78
75166;BME280;63747;48.042;10.088;2022-12-18T15:27:47;96320.16;;;-4.45;66.06
75166;BME280;63747;48.042;10.088;2022-12-18T15:31:02;96316.81;;;-4.49;66.17
75166;BME280;63747;48.042;10.088;2022-12-18T15:34:19;96315.66;;;-4.40;66.17
75166;BME280;63747;48.042;10.088;2022-12-18T15:37:21;96327.09;;;-4.46;65.95
75166;BME280;63747;48.042;10.088;2022-12-18T15:40:23;96316.88;;;-4.50;66.20
75166;BME280;63747;48.042;10.088;2022-12-18T15:43:25;96327.94;;;-4.45;66.14
75166;BME280;63747;48.042;10.088;2022-12-18T15:46:35;96321.78;;;-4.43;66.15
75166;BME280;63747;48.042;10.088;2022-12-18T15:49:36;96320.25;;;-4.48;65.99
75166;BME280;63747;48.042;10.088;2022-12-18T15:52:41;96316.25;;;-4.57;66.27
75166;BME280;63747;48.042;10.088;2022-12-18T15:55:43;96320.94;;;-4.66;66.59
75166;BME280;63747;48.042;10.088;2022-12-18T15:59:17;96323.25;;;-4.59;66.64
75166;BME280;63747;48.042;10.088;2022-12-18T16:02:19;96311.56;;;-4.71;66.19
75166;BME280;63747;48.042;10.088;2022-12-18T16:05:24;96308.78;;;-4.89;66.83
75166;BME280;63747;48.042;10.088;2022-12-18T16:08:26;96312.84;;;-4.82;66.96
75166;BME280;63747;48.042;10.088;2022-12-18T16:11:28;96310.38;;;-4.85;66.46
75166;BME280;63747;48.042;10.088;2022-12-18T16:14:39;96316.94;;;-5.02;67.06
75166;BME280;63747;48.042;10.088;2022-12-18T16:17:40;96309.94;;;-4.98;67.17
75166;BME280;63747;48.042;10.088;2022-12-18T16:20:41;96321.72;;;-4.89;67.21
75166;BME280;63747;48.042;10.088;2022-12-18T16:23:42;96319.75;;;-4.83;66.90
75166;BME280;63747;48.042;10.088;2022-12-18T16:26:43;96317.66;;;-5.23;67.19
75166;BME280;63747;48.042;10.088;2022-12-18T16:29:44;96319.97;;;-5.14;67.55
75166;BME280;63747;48.042;10.088;2022-12-18T16:32:45;96312.03;;;-5.09;67.35
75166;BME280;63747;48.042;10.088;2022-12-18T16:35:51;96313.00;;;-5.12;67.51
75166;BME280;63747;48.042;10.088;2022-12-18T16:38:52;96311.94;;;-5.06;67.56
75166;BME280;63747;48.042;10.088;2022-12-18T16:41:53;96314.53;;;-5.06;67.43
75166;BME280;63747;48.042;10.088;2022-12-18T16:44:54;96321.25;;;-5.01;67.34
75166;BME280;63747;48.042;10.088;2022-12-18T16:47:55;96295.75;;;-5.11;67.37
75166;BME280;63747;48.042;10.088;2022-12-18T16:51:03;96299.47;;;-4.93;67.54
75166;BME280;63747;48.042;10.088;2022-12-18T16:54:04;96296.22;;;-5.00;67.25
75166;BME280;63747;48.042;10.088;2022-12-18T16:57:05;96292.94;;;-5.05;67.41
75166;BME280;63747;48.042;10.088;2022-12-18T17:00:06;96300.72;;;-5.05;67.44
75166;BME280;63747;48.042;10.088;2022-12-18T17:03:07;96286.19;;;-5.34;67.60
75166;BME280;63747;48.042;10.088;2022-12-18T17:06:08;96285.47;;;-5.66;67.95
75166;BME280;63747;48.042;10.088;2022-12-18T17:09:14;96290.13;;;-5.77;68.45
75166;BME280;63747;48.042;10.088;2022-12-18T17:12:16;96287.06;;;-5.90;68.84
75166;BME280;63747;48.042;10.088;2022-12-18T17:15:16;96283.16;;;-5.73;68.73
75166;BME280;63747;48.042;10.088;2022-12-18T17:18:17;96282.75;;;-5.61;68.53
75166;BME280;63747;48.042;10.088;2022-12-18T17:21:18;96286.00;;;-5.56;68.45
75166;BME280;63747;48.042;10.088;2022-12-18T17:24:19;96289.63;;;-5.62;68.52